Lake Stevens, WA

1:08 AM PDT on August 23, 2014 (GMT -0700)
Catherine Creek | Change Station
CLOSE
Current Station
Personal Weather Station
Location: Lake Stevens, WA
Elevation: 246 ft
Nearby Weather Stations

Elev 246 ft 48.03 °N, 122.06 °W | Updated 4 seconds ago

Clear
Clear
55.2 °F
Feels Like 55.2 °F
N
0.0
Wind Variable Wind from NW
Gusts 0.0 mph

Today
High -- | Low -- °F
--% Chance of Precip.
Yesterday
High -- | Low -- °F
Precip. -- in
6:14 AM 8:06 PM
Waning Crescent, 5% visible
Pressure 30.13 in
Visibility 10.0 miles
Clouds Clear
Dew Point 54 °F
Humidity 97%
Rainfall 0.00 in
Snow Depth Not available.
UV 0 out of 12
Pollen 2.80 out of 12
PM2.5 Moderate
Flu Activity Not available.
METAR KAWO 230755Z AUTO 35003KT 10SM CLR 12/11 A3013 RMK AO1

More Conditions Fewer Conditions

Pressure 30.13 in
Visibility 10.0 miles
Clouds Clear
Dew Point 54 °F
Humidity 97%
Rainfall 0.00 in
Snow Depth Not available.
UV 0 out of 12
Pollen 2.80 out of 12
PM2.5 Moderate
Flu Activity Not available.
METAR KAWO 230755Z AUTO 35003KT 10SM CLR 12/11 A3013 RMK AO1

More Conditions Fewer Conditions

10-Day Weather Forecast

Almanac

Astronomy

Aug. 23, 2014 Rise Set
Actual Time 6:14 AM PDT 8:06 PM PDT
Civil Twilight 5:40 AM PDT 8:39 PM PDT
Nautical Twilight 5:00 AM PDT 9:20 PM PDT
Astronomical Twilight 4:14 AM PDT 10:05 PM PDT
Moon 4:32 AM PDT 6:55 PM PDT
Length of Visible Light 14h 58m
Length of Day
13h 52m
Tomorrow will be 3m 16s shorter.
Waning Crescent, 5% of the Moon is Illuminated
Today
Waning Crescent
Aug 25
New
Sep 2
First Quarter
Sep 8
Full
Sep 15
Last Quarter

Today's Extremes

State Highs State Lows

Community

WunderPhotos

Upload Photos

1,746,386 photos uploaded!

WunderBlogs® & News

By Dr. Jeff Masters
Director of Meteorology, Weather Underground
By Kari Strenfel
Meteorologist, Weather Underground
By Christopher C. Burt
Weather Historian, Weather Underground
August 23, 2014
August 23, 2014
August 22, 2014

Nearby

Air Quality

  Air Quality AQ Index Pollutant
Yesterday Good
PM2.5
Yesterday Good
OZONE
Current Moderate
PM2.5
Friday Good
OZONE
Friday Good
PM2.5
Saturday Good
OZONE
Saturday Good
PM2.5
Sunday Good
OZONE
Sunday Good
PM2.5
Monday Good
OZONE
Monday Good
PM2.5
Tuesday Good
OZONE
Tuesday Good
PM2.5
Wednesday Good
OZONE
Wednesday Good
PM2.5

Snow Depth

Station Depth Elevation
Alpine Meadows 0 in 3500 ft
Elbow Lake 0 in 3200 ft
Dungeness 0 in 4100 ft
Stevens Pass 0 in 4070 ft
Lyman Lake 2 in 5900 ft

Earthquake Activity

City Distance Mag. Time & Date
No recent earthquake activity has been reported nearby.
Minimum magnitude displayed is 2.5.

Coastal Water Temperatures

Place Temperature
Port Townsend, WA 53.1 °F
Seattle, WA 57.0 °F
Friday Harbor, WA 54.0 °F
Tacoma, WA 55.9 °F

Nearby Weather Stations